Time;durP1;ratioP1;P1;durP2;ratioP2;P2;SDS_P1;SDS_P2;PMS_P1;PMS_P2;Temp;Humidity;BMP_temperature;BMP_pressure;BME280_temperature;BME280_humidity;BME280_pressure;Samples;Min_cycle;Max_cycle;Signal;HPM_P1;HPM_P2
2022/04/13 00:01:45;;;;;;;7.70;5.58;;;;;;;4.07;60.29;96892.83;1654542;87;20998;-79
2022/04/13 00:04:12;;;;;;;6.92;5.30;;;;;;;4.05;60.56;96895.50;1654529;87;21026;-79
2022/04/13 00:06:38;;;;;;;7.28;5.95;;;;;;;4.04;60.84;96899.49;1629749;88;21402;-78
2022/04/13 00:09:08;;;;;;;8.18;5.35;;;;;;;4.01;61.13;96898.47;1654774;87;21042;-79
2022/04/13 00:11:34;;;;;;;7.40;6.67;;;;;;;3.97;60.99;96904.81;1629502;88;21029;-79
2022/04/13 00:14:00;;;;;;;8.13;5.20;;;;;;;3.94;60.98;96903.32;1653686;87;21010;-79
2022/04/13 00:16:27;;;;;;;7.92;5.70;;;;;;;3.94;60.72;96905.08;1648756;87;21014;-79
2022/04/13 00:18:53;;;;;;;8.93;6.20;;;;;;;3.92;60.73;96906.50;1626736;88;20998;-79
2022/04/13 00:21:19;;;;;;;7.45;4.95;;;;;;;3.91;61.00;96907.44;1633988;85;21404;-79
2022/04/13 00:23:45;;;;;;;8.10;5.83;;;;;;;3.90;60.83;96905.78;1653652;87;20983;-79
2022/04/13 00:26:10;;;;;;;9.08;5.47;;;;;;;3.90;60.99;96905.34;1654599;87;20982;-79
2022/04/13 00:28:36;;;;;;;6.72;5.12;;;;;;;3.90;61.21;96909.20;1654728;87;21014;-79
2022/04/13 00:31:02;;;;;;;7.25;5.42;;;;;;;3.89;61.37;96897.73;1654416;87;21285;-79
2022/04/13 00:33:28;;;;;;;7.85;5.92;;;;;;;3.88;61.48;96905.09;1654461;86;20965;-78
2022/04/13 00:35:55;;;;;;;6.72;5.03;;;;;;;3.87;61.41;96903.47;1653405;87;20995;-79
2022/04/13 00:38:22;;;;;;;7.42;5.53;;;;;;;3.85;61.53;96902.78;1652937;87;21071;-79
2022/04/13 00:40:49;;;;;;;7.83;5.47;;;;;;;3.84;61.51;96903.73;1653297;87;21063;-79
2022/04/13 00:43:14;;;;;;;6.67;5.00;;;;;;;3.82;61.56;96905.14;1653266;87;21070;-79
2022/04/13 00:45:46;;;;;;;6.72;4.70;;;;;;;3.82;61.71;96899.19;1653315;87;21425;-79
2022/04/13 00:48:17;;;;;;;5.90;4.80;;;;;;;3.80;61.75;96896.75;1653354;85;21070;-78
2022/04/13 00:50:43;;;;;;;7.03;5.30;;;;;;;3.80;61.63;96898.03;1653412;87;20982;-78
2022/04/13 00:53:09;;;;;;;7.67;4.95;;;;;;;3.85;61.58;96904.07;1647332;87;21050;-79
2022/04/13 00:55:37;;;;;;;7.05;5.12;;;;;;;3.88;61.51;96902.05;1645144;87;21070;-79
2022/04/13 00:58:02;;;;;;;6.85;4.95;;;;;;;3.89;61.32;96896.44;1644792;87;21433;-78
2022/04/13 01:00:28;;;;;;;6.65;4.95;;;;;;;3.89;61.15;96893.40;1632746;87;21010;-78
2022/04/13 01:02:54;;;;;;;8.45;4.90;;;;;;;3.89;61.31;96891.30;1617305;89;21039;-79
2022/04/13 01:05:20;;;;;;;7.53;5.75;;;;;;;3.88;61.36;96892.24;1617431;89;21408;-79
2022/04/13 01:07:46;;;;;;;6.40;4.42;;;;;;;3.85;61.45;96888.17;1637809;87;21422;-79
2022/04/13 01:10:11;;;;;;;6.62;4.83;;;;;;;3.83;61.31;96898.25;1632019;87;20951;-79
2022/04/13 01:12:37;;;;;;;5.70;4.12;;;;;;;3.82;61.45;96895.34;1628260;87;21016;-79
2022/04/13 01:15:05;;;;;;;7.45;4.55;;;;;;;3.79;61.30;96892.55;1645186;87;20970;-79
2022/04/13 01:17:30;;;;;;;6.37;4.60;;;;;;;3.78;61.22;96895.25;1625524;87;21338;-79
2022/04/13 01:19:57;;;;;;;5.78;4.45;;;;;;;3.76;61.25;96899.70;1617532;89;20995;-79
2022/04/13 01:22:24;;;;;;;6.30;4.75;;;;;;;3.76;61.19;96896.67;1642859;87;21018;-79
2022/04/13 01:24:50;;;;;;;6.28;4.70;;;;;;;3.74;61.24;96896.42;1644979;87;21093;-79
2022/04/13 01:27:16;;;;;;;6.08;4.62;;;;;;;3.73;61.07;96893.52;1645138;87;21067;-78
2022/04/13 01:29:45;;;;;;;8.00;4.97;;;;;;;3.73;61.24;96891.75;1645110;87;20991;-78
2022/04/13 01:32:12;;;;;;;7.83;5.22;;;;;;;3.70;61.30;96892.02;1645114;87;20942;-78
2022/04/13 01:34:39;;;;;;;6.55;4.67;;;;;;;3.68;61.58;96890.52;1645136;87;20990;-79
2022/04/13 01:37:05;;;;;;;5.08;4.28;;;;;;;3.66;61.46;96885.98;1622529;87;21061;-78
2022/04/13 01:39:32;;;;;;;6.62;4.72;;;;;;;3.67;61.56;96886.32;1627080;88;21033;-79
2022/04/13 01:41:58;;;;;;;7.25;5.03;;;;;;;3.65;61.95;96880.02;1645045;87;21489;-79
2022/04/13 01:44:24;;;;;;;4.95;4.45;;;;;;;3.63;61.85;96883.19;1645081;87;21002;-79
2022/04/13 01:46:51;;;;;;;6.10;4.80;;;;;;;3.61;61.94;96881.22;1645033;87;21055;-78
2022/04/13 01:49:17;;;;;;;7.00;4.53;;;;;;;3.59;61.98;96876.21;1645144;87;21039;-79
2022/04/13 01:51:43;;;;;;;5.60;4.30;;;;;;;3.59;62.03;96876.21;1645552;87;20991;-78
2022/04/13 01:54:09;;;;;;;6.30;4.25;;;;;;;3.58;62.00;96877.63;1629745;88;21053;-79
2022/04/13 01:56:34;;;;;;;5.10;4.60;;;;;;;3.59;62.24;96877.97;1653998;87;21025;-78
2022/04/13 01:59:01;;;;;;;5.75;4.78;;;;;;;3.57;61.89;96879.35;1628172;87;21340;-79
2022/04/13 02:01:27;;;;;;;5.80;4.62;;;;;;;3.59;61.37;96882.64;1629697;88;21029;-78
2022/04/13 02:03:53;;;;;;;5.92;4.90;;;;;;;3.59;61.92;96876.21;1654829;87;21007;-79
2022/04/13 02:06:19;;;;;;;5.95;4.20;;;;;;;3.58;61.81;96878.91;1654148;87;20986;-78
2022/04/13 02:08:45;;;;;;;9.10;4.55;;;;;;;3.56;61.87;96875.16;1629643;88;20985;-79
2022/04/13 02:11:10;;;;;;;6.17;4.25;;;;;;;3.57;62.63;96875.97;1654767;87;20990;-78
2022/04/13 02:13:36;;;;;;;5.37;4.47;;;;;;;3.55;62.73;96870.14;1629679;88;20938;-78
2022/04/13 02:16:02;;;;;;;6.35;4.80;;;;;;;3.53;62.90;96874.13;1653268;87;20982;-78
2022/04/13 02:18:28;;;;;;;5.42;4.12;;;;;;;3.55;63.09;96880.42;1653327;87;21025;-79
2022/04/13 02:20:54;;;;;;;6.58;4.28;;;;;;;3.58;63.03;96880.20;1653109;87;21014;-79
2022/04/13 02:23:19;;;;;;;6.42;4.33;;;;;;;3.59;62.81;96886.49;1653351;87;21046;-79
2022/04/13 02:25:45;;;;;;;7.37;4.70;;;;;;;3.65;62.90;96886.92;1629168;87;21113;-79
2022/04/13 02:28:11;;;;;;;7.25;4.25;;;;;;;3.67;62.88;96879.89;1626783;88;21369;-78
2022/04/13 02:30:36;;;;;;;5.05;4.17;;;;;;;3.65;62.76;96881.31;1626663;88;21031;-78
2022/04/13 02:33:02;;;;;;;5.67;4.67;;;;;;;3.65;62.75;96884.34;1651952;87;20930;-79
2022/04/13 02:35:28;;;;;;;6.25;4.65;;;;;;;3.65;62.84;96886.45;1654670;87;21025;-79
2022/04/13 02:37:54;;;;;;;6.90;4.10;;;;;;;3.63;62.81;96881.91;1654785;87;21021;-79
2022/04/13 02:40:20;;;;;;;4.97;4.05;;;;;;;3.63;62.95;96887.52;1641955;87;21109;-79
2022/04/13 02:42:46;;;;;;;6.92;4.83;;;;;;;3.62;63.12;96887.98;1626872;88;21405;-78
2022/04/13 02:45:12;;;;;;;6.60;4.70;;;;;;;3.60;63.20;96886.02;1647219;86;21023;-78
2022/04/13 02:47:37;;;;;;;6.12;4.50;;;;;;;3.59;63.34;96887.78;1654428;87;21459;-79
2022/04/13 02:50:06;;;;;;;9.30;4.35;;;;;;;3.57;63.27;96889.63;1649562;87;20975;-78
2022/04/13 02:52:32;;;;;;;6.65;4.67;;;;;;;3.57;63.34;96891.39;1614571;87;21459;-78
2022/04/13 02:54:58;;;;;;;6.70;3.90;;;;;;;3.56;63.50;96888.47;1649593;87;21070;-78
2022/04/13 02:57:24;;;;;;;6.87;3.77;;;;;;;3.55;63.33;96885.09;1639288;87;21042;-79
2022/04/13 02:59:50;;;;;;;5.33;3.92;;;;;;;3.53;63.54;96884.88;1631294;87;21148;-78
2022/04/13 03:02:16;;;;;;;5.55;3.90;;;;;;;3.51;63.65;96881.63;1650584;87;20966;-79
2022/04/13 03:04:43;;;;;;;4.67;3.37;;;;;;;3.51;63.54;96882.91;1645518;87;20990;-78
2022/04/13 03:07:12;;;;;;;5.72;3.95;;;;;;;3.50;63.80;96883.84;1646031;87;21421;-78
2022/04/13 03:09:38;;;;;;;4.67;3.72;;;;;;;3.48;63.66;96878.84;1645317;87;21037;-78
2022/04/13 03:12:06;;;;;;;5.25;3.62;;;;;;;3.51;63.61;96883.72;1645190;87;20963;-78
2022/04/13 03:14:32;;;;;;;4.55;3.92;;;;;;;3.56;63.50;96884.15;1639401;87;20978;-78
2022/04/13 03:16:58;;;;;;;5.97;4.17;;;;;;;3.58;63.29;96885.34;1641712;87;21349;-78
2022/04/13 03:19:24;;;;;;;5.25;4.17;;;;;;;3.59;63.13;96898.05;1642210;87;20998;-78
2022/04/13 03:21:51;;;;;;;7.60;4.28;;;;;;;3.61;63.15;96901.31;1645812;87;21025;-78
2022/04/13 03:24:18;;;;;;;5.70;3.85;;;;;;;3.60;63.07;96904.82;1643266;87;21455;-79
2022/04/13 03:26:44;;;;;;;6.22;4.45;;;;;;;3.59;63.22;96904.48;1652221;87;21091;-78
2022/04/13 03:29:09;;;;;;;4.87;4.00;;;;;;;3.58;63.11;96912.31;1645665;87;21069;-78
2022/04/13 03:31:35;;;;;;;4.83;3.80;;;;;;;3.56;63.15;96911.59;1649418;87;21414;-79
2022/04/13 03:34:01;;;;;;;7.05;4.47;;;;;;;3.53;62.80;96904.15;1649319;87;21080;-78
2022/04/13 03:36:27;;;;;;;5.40;4.00;;;;;;;3.50;62.62;96905.69;1634719;87;21072;-78
2022/04/13 03:38:53;;;;;;;6.92;4.42;;;;;;;3.48;62.58;96907.09;1654031;87;21014;-78
2022/04/13 03:41:19;;;;;;;6.92;4.12;;;;;;;3.45;63.25;96905.26;1641132;87;21042;-78
2022/04/13 03:43:45;;;;;;;4.95;4.05;;;;;;;3.42;63.51;96908.89;1645122;87;21457;-78
2022/04/13 03:46:11;;;;;;;5.17;4.00;;;;;;;3.41;63.67;96911.56;1654191;87;21361;-78
2022/04/13 03:48:37;;;;;;;6.50;3.87;;;;;;;3.40;63.74;96915.88;1646812;87;20966;-78
2022/04/13 03:51:02;;;;;;;6.08;4.40;;;;;;;3.40;63.73;96913.31;1647002;87;21030;-78
2022/04/13 03:53:29;;;;;;;6.53;3.90;;;;;;;3.43;63.36;96914.84;1650601;86;21483;-78
2022/04/13 03:55:55;;;;;;;6.05;3.90;;;;;;;3.47;62.92;96913.65;1641981;87;21042;-78
2022/04/13 03:58:21;;;;;;;4.97;3.77;;;;;;;3.50;63.15;96915.97;1627980;88;21430;-78
2022/04/13 04:00:47;;;;;;;5.22;3.92;;;;;;;3.51;63.29;96922.73;1642166;87;21077;-78
2022/04/13 04:03:12;;;;;;;6.58;3.92;;;;;;;3.53;63.19;96924.23;1651402;85;21002;-78
2022/04/13 04:05:38;;;;;;;7.40;4.40;;;;;;;3.55;63.67;96924.92;1650218;87;20990;-78
2022/04/13 04:08:04;;;;;;;7.58;4.40;;;;;;;3.53;63.61;96928.09;1651324;87;21334;-78
2022/04/13 04:10:31;;;;;;;5.70;3.77;;;;;;;3.53;63.45;96924.70;1652686;87;21514;-78
2022/04/13 04:12:56;;;;;;;6.42;3.87;;;;;;;3.51;63.49;96926.58;1635976;87;21022;-78
2022/04/13 04:15:22;;;;;;;5.37;3.33;;;;;;;3.49;63.68;96920.76;1654545;87;21010;-78
2022/04/13 04:17:48;;;;;;;5.95;3.55;;;;;;;3.48;63.98;96925.55;1654770;87;20986;-78
2022/04/13 04:20:13;;;;;;;3.90;3.50;;;;;;;3.46;64.20;96930.01;1654745;87;20971;-78
2022/04/13 04:22:39;;;;;;;4.50;3.35;;;;;;;3.45;64.27;96932.23;1654458;87;21042;-78
2022/04/13 04:25:07;;;;;;;4.25;3.70;;;;;;;3.44;64.41;96935.27;1654347;87;21525;-78
2022/04/13 04:27:33;;;;;;;6.42;4.50;;;;;;;3.45;64.37;96938.66;1654563;87;21094;-78
2022/04/13 04:29:59;;;;;;;4.40;3.45;;;;;;;3.46;64.41;96936.43;1654448;87;21527;-78
2022/04/13 04:32:25;;;;;;;6.22;3.70;;;;;;;3.46;64.47;96930.82;1654195;87;20950;-78
2022/04/13 04:34:51;;;;;;;4.10;3.45;;;;;;;3.46;64.43;96930.82;1654550;87;21025;-78
2022/04/13 04:37:16;;;;;;;4.72;3.87;;;;;;;3.49;64.47;96926.71;1630491;87;21056;-78
2022/04/13 04:39:42;;;;;;;6.58;4.17;;;;;;;3.50;64.36;96928.34;1627913;88;21443;-78
2022/04/13 04:42:08;;;;;;;7.17;3.92;;;;;;;3.52;64.32;96932.88;1628007;88;21473;-78
2022/04/13 04:44:34;;;;;;;5.05;4.45;;;;;;;3.55;64.27;96933.09;1628180;87;21057;-78
2022/04/13 04:47:00;;;;;;;4.78;4.22;;;;;;;3.57;64.14;96935.07;1627309;87;20978;-78
2022/04/13 04:49:25;;;;;;;7.12;4.30;;;;;;;3.58;64.07;96932.88;1649786;87;21337;-78
2022/04/13 04:51:51;;;;;;;5.05;3.70;;;;;;;3.58;64.20;96934.97;1637028;87;21036;-78
2022/04/13 04:54:17;;;;;;;4.28;3.55;;;;;;;3.60;64.21;96936.13;1627667;87;21018;-78
2022/04/13 04:56:42;;;;;;;5.87;3.55;;;;;;;3.63;64.49;96933.78;1628067;87;21105;-78
2022/04/13 04:59:08;;;;;;;7.00;3.70;;;;;;;3.65;64.39;96932.70;1628095;88;21416;-78
2022/04/13 05:01:34;;;;;;;5.15;3.30;;;;;;;3.69;64.49;96934.08;1627833;87;20987;-78
2022/04/13 05:03:59;;;;;;;5.58;3.47;;;;;;;3.75;64.51;96934.88;1626396;88;20995;-78
2022/04/13 05:06:28;;;;;;;6.37;3.52;;;;;;;3.82;64.49;96935.18;1626634;87;21046;-78
2022/04/13 05:08:53;;;;;;;4.45;3.12;;;;;;;3.88;64.66;96939.80;1626454;88;20999;-78
2022/04/13 05:11:19;;;;;;;3.72;3.05;;;;;;;3.90;64.84;96946.48;1629159;87;21030;-78
2022/04/13 05:13:45;;;;;;;5.58;4.12;;;;;;;3.91;65.08;96941.67;1627142;87;21314;-78
2022/04/13 05:16:13;;;;;;;4.70;3.62;;;;;;;3.94;65.04;96949.60;1633497;87;20992;-78
2022/04/13 05:18:40;;;;;;;4.30;3.08;;;;;;;3.98;65.11;96950.16;1643073;87;21032;-78
2022/04/13 05:21:06;;;;;;;4.47;3.17;;;;;;;3.99;65.32;96950.50;1626860;87;21019;-78
2022/04/13 05:23:32;;;;;;;5.10;3.55;;;;;;;4.01;65.34;96953.28;1626151;87;21509;-78
2022/04/13 05:25:58;;;;;;;5.58;3.47;;;;;;;4.04;65.39;96955.59;1626276;87;21507;-78
2022/04/13 05:28:24;;;;;;;4.30;3.30;;;;;;;4.09;65.44;96956.52;1626747;87;20994;-78
2022/04/13 05:30:49;;;;;;;6.10;3.55;;;;;;;4.15;65.55;96951.67;1646244;87;21066;-78
2022/04/13 05:33:15;;;;;;;7.47;3.50;;;;;;;4.24;65.55;96957.01;1654530;87;21392;-78
2022/04/13 05:35:41;;;;;;;4.97;3.33;;;;;;;4.30;65.59;96956.01;1653953;87;21057;-78
2022/04/13 05:38:07;;;;;;;3.77;3.05;;;;;;;4.37;65.41;96960.16;1629596;88;21009;-78
2022/04/13 05:40:34;;;;;;;4.53;3.98;;;;;;;4.43;65.54;96972.05;1628725;87;21085;-78
2022/04/13 05:43:00;;;;;;;4.60;3.60;;;;;;;4.51;66.00;96969.63;1626674;88;21033;-78
2022/04/13 05:45:25;;;;;;;5.33;3.17;;;;;;;4.58;65.81;96966.09;1649788;87;20919;-78
2022/04/13 05:47:51;;;;;;;3.95;3.30;;;;;;;4.70;65.67;96970.17;1614195;88;20949;-78
2022/04/13 05:50:17;;;;;;;5.00;3.37;;;;;;;4.81;65.86;96973.94;1631747;87;20967;-78
2022/04/13 05:52:43;;;;;;;6.75;3.77;;;;;;;4.94;65.79;96970.31;1633065;87;20987;-79
2022/04/13 05:55:11;;;;;;;3.95;3.45;;;;;;;5.07;65.80;96975.57;1628976;87;21529;-79
2022/04/13 05:57:37;;;;;;;4.12;3.20;;;;;;;5.21;65.67;96971.80;1625335;87;21099;-78
2022/04/13 06:00:04;;;;;;;5.00;3.58;;;;;;;5.35;66.14;96977.82;1623153;88;21082;-78
2022/04/13 06:02:30;;;;;;;3.62;3.30;;;;;;;5.47;66.01;96980.28;1623175;87;21118;-78
2022/04/13 06:04:58;;;;;;;4.67;3.62;;;;;;;5.58;66.51;96980.16;1637492;87;21097;-78
2022/04/13 06:07:24;;;;;;;5.33;3.55;;;;;;;5.71;66.70;96987.14;1654627;87;21042;-82
2022/04/13 06:09:49;;;;;;;6.05;3.33;;;;;;;5.88;66.88;96985.64;1634772;87;20962;-81
2022/04/13 06:12:23;;;;;;;5.92;3.47;;;;;;;6.04;66.67;96991.55;1642859;87;20967;-82
2022/04/13 06:14:49;;;;;;;8.50;5.30;;;;;;;6.26;66.49;96995.91;1596906;89;21003;-82
2022/04/13 06:17:16;;;;;;;12.47;9.53;;;;;;;6.52;65.18;97002.57;1651079;87;20962;-81
2022/04/13 06:19:43;;;;;;;14.07;9.55;;;;;;;6.75;63.64;96999.14;1652572;87;21053;-81
2022/04/13 06:22:08;;;;;;;10.40;7.92;;;;;;;7.00;63.04;97002.03;1650717;87;21013;-82
2022/04/13 06:24:34;;;;;;;10.98;7.28;;;;;;;7.19;63.91;97002.73;1647331;87;20962;-82
2022/04/13 06:27:00;;;;;;;12.25;7.17;;;;;;;7.37;63.66;97000.16;1654476;87;21431;-82
2022/04/13 06:29:26;;;;;;;8.73;5.50;;;;;;;7.55;63.16;97004.05;1654563;87;20993;-82
2022/04/13 06:31:52;;;;;;;17.98;13.38;;;;;;;7.69;63.06;97008.71;1626076;87;20967;-82
2022/04/13 06:34:17;;;;;;;22.65;14.63;;;;;;;7.77;61.86;97008.77;1650328;87;21007;-82
2022/04/13 06:36:43;;;;;;;22.22;15.58;;;;;;;7.84;61.10;97012.89;1649732;87;21034;-82
2022/04/13 06:39:09;;;;;;;21.42;16.23;;;;;;;7.96;60.96;97017.33;1649867;87;21018;-82
2022/04/13 06:41:36;;;;;;;23.55;15.85;;;;;;;8.09;61.11;97015.98;1649942;87;21120;-82
2022/04/13 06:44:02;;;;;;;20.05;12.10;;;;;;;8.22;60.56;97016.89;1646554;87;21349;-82
2022/04/13 06:46:28;;;;;;;18.27;13.58;;;;;;;8.34;60.98;97021.37;1635303;86;21047;-82
2022/04/13 06:48:54;;;;;;;19.20;14.35;;;;;;;8.45;60.50;97017.70;1654612;86;21008;-82
2022/04/13 06:51:20;;;;;;;16.95;13.40;;;;;;;8.56;59.69;97023.93;1647224;87;21481;-83
2022/04/13 06:53:46;;;;;;;17.80;13.88;;;;;;;8.65;59.75;97012.17;1625149;87;21067;-82
2022/04/13 06:56:12;;;;;;;17.65;12.33;;;;;;;8.78;60.15;97016.09;1618167;87;21043;-82
2022/04/13 06:58:38;;;;;;;16.40;12.75;;;;;;;8.90;60.05;97016.97;1638695;87;20967;-82
2022/04/13 07:01:04;;;;;;;16.48;12.98;;;;;;;9.01;59.31;97021.08;1640270;87;21003;-82
2022/04/13 07:03:29;;;;;;;17.77;12.05;;;;;;;9.12;58.97;97022.59;1630853;87;21361;-82
2022/04/13 07:05:55;;;;;;;18.02;12.53;;;;;;;9.21;58.80;97021.14;1640043;87;20955;-82
2022/04/13 07:08:21;;;;;;;20.62;13.03;;;;;;;9.31;57.69;97021.02;1622335;88;21129;-82
2022/04/13 07:10:47;;;;;;;20.37;14.47;;;;;;;9.42;58.00;97024.59;1628799;87;21078;-82
2022/04/13 07:13:14;;;;;;;18.62;14.13;;;;;;;9.53;57.87;97024.31;1650252;87;21417;-82
2022/04/13 07:15:40;;;;;;;27.80;17.42;;;;;;;9.66;58.37;97029.53;1650097;87;21177;-82
2022/04/13 07:18:06;;;;;;;22.60;15.80;;;;;;;9.74;56.43;97036.02;1649853;87;21058;-83
2022/04/13 07:20:32;;;;;;;21.17;16.23;;;;;;;9.83;57.15;97033.28;1650123;87;21007;-82
2022/04/13 07:22:58;;;;;;;21.57;16.42;;;;;;;9.95;57.84;97032.97;1633951;87;21007;-82
2022/04/13 07:25:24;;;;;;;28.62;19.98;;;;;;;10.05;57.63;97034.91;1643545;87;21050;-82
2022/04/13 07:27:50;;;;;;;26.57;19.32;;;;;;;10.12;57.08;97034.59;1649844;87;21010;-82
2022/04/13 07:30:16;;;;;;;27.87;19.15;;;;;;;10.21;57.11;97041.42;1641643;87;21394;-82
2022/04/13 07:32:47;;;;;;;26.82;19.40;;;;;;;10.30;56.53;97044.35;1629441;87;20951;-82
2022/04/13 07:35:14;;;;;;;28.55;19.62;;;;;;;10.37;55.27;97047.09;1652096;86;21050;-82
2022/04/13 07:37:39;;;;;;;27.17;20.08;;;;;;;10.41;55.36;97045.78;1626815;88;20995;-82
2022/04/13 07:40:09;;;;;;;33.28;22.32;;;;;;;10.46;55.83;97047.42;1626579;88;21357;-82
2022/04/13 07:42:35;;;;;;;31.10;21.30;;;;;;;10.52;56.22;97044.16;1626570;88;21069;-83
2022/04/13 07:45:03;;;;;;;27.15;20.85;;;;;;;10.61;54.98;97047.08;1628913;87;21038;-82
2022/04/13 07:47:29;;;;;;;31.77;21.07;;;;;;;10.66;53.72;97051.77;1651297;87;21010;-82
2022/04/13 07:49:55;;;;;;;30.48;19.82;;;;;;;10.72;54.82;97050.61;1654412;87;20967;-82
2022/04/13 07:52:21;;;;;;;31.37;22.17;;;;;;;10.80;53.98;97058.40;1629052;87;21386;-82
2022/04/13 07:54:47;;;;;;;29.92;20.97;;;;;;;10.83;54.35;97061.95;1620416;87;21008;-82
2022/04/13 07:57:13;;;;;;;23.77;17.00;;;;;;;10.93;54.88;97056.59;1614678;87;21058;-82
2022/04/13 07:59:40;;;;;;;25.65;17.25;;;;;;;11.02;53.44;97058.16;1613269;87;21007;-82
2022/04/13 08:02:07;;;;;;;20.92;14.78;;;;;;;11.09;54.48;97054.42;1630534;87;21026;-83
2022/04/13 08:04:34;;;;;;;21.87;15.25;;;;;;;11.21;54.13;97050.45;1615831;87;20975;-82
2022/04/13 08:07:00;;;;;;;21.75;14.00;;;;;;;11.31;53.43;97052.37;1623147;87;21002;-82
2022/04/13 08:09:26;;;;;;;23.25;15.65;;;;;;;11.44;54.48;97051.83;1639429;87;21027;-82
2022/04/13 08:11:52;;;;;;;21.93;14.35;;;;;;;11.55;52.66;97054.05;1639176;87;21092;-82
2022/04/13 08:14:22;;;;;;;17.77;13.80;;;;;;;11.66;52.34;97057.55;1639211;87;20976;-82
2022/04/13 08:16:48;;;;;;;17.07;12.40;;;;;;;11.76;50.82;97057.34;1639137;87;21410;-82
2022/04/13 08:19:14;;;;;;;17.15;11.40;;;;;;;11.82;51.00;97051.46;1639120;87;21034;-82
2022/04/13 08:21:41;;;;;;;17.05;11.57;;;;;;;11.93;48.71;97061.48;1638849;88;21102;-83
2022/04/13 08:24:07;;;;;;;11.75;9.55;;;;;;;11.97;49.12;97058.03;1639049;87;21030;-82
2022/04/13 08:26:33;;;;;;;12.58;9.38;;;;;;;12.04;49.07;97051.16;1639119;87;21077;-83
2022/04/13 08:28:58;;;;;;;14.13;10.32;;;;;;;12.19;49.93;97048.58;1639205;87;21046;-82
2022/04/13 08:31:24;;;;;;;14.43;10.08;;;;;;;12.26;48.45;97050.82;1639869;87;21040;-82
2022/04/13 08:33:50;;;;;;;11.88;8.85;;;;;;;12.36;49.17;97050.06;1640574;87;21363;-83
2022/04/13 08:36:17;;;;;;;12.30;8.80;;;;;;;12.50;48.47;97044.56;1640653;87;21040;-82
2022/04/13 08:38:45;;;;;;;11.33;8.40;;;;;;;12.61;47.52;97046.75;1640458;87;20981;-83
2022/04/13 08:41:17;;;;;;;13.18;9.33;;;;;;;12.69;47.64;97044.55;1640647;87;21036;-82
2022/04/13 08:43:51;;;;;;;13.43;9.08;;;;;;;12.81;46.87;97041.81;1640675;87;21036;-82
2022/04/13 08:46:26;;;;;;;14.33;9.00;;;;;;;12.85;47.16;97042.60;1640491;87;21061;-82
2022/04/13 08:48:56;;;;;;;13.28;8.63;;;;;;;12.93;46.98;97040.39;1640574;87;21507;-82
2022/04/13 08:51:22;;;;;;;10.30;8.45;;;;;;;13.01;46.99;97043.38;1640442;86;21100;-82
2022/04/13 08:53:50;;;;;;;9.93;7.42;;;;;;;13.09;45.88;97041.51;1643996;86;21351;-83
2022/04/13 08:56:19;;;;;;;11.88;8.55;;;;;;;13.12;45.96;97042.44;1668991;86;21007;-83
2022/04/13 08:59:01;;;;;;;10.15;7.53;;;;;;;13.13;45.63;97040.14;1669180;86;21031;-82
2022/04/13 09:01:50;;;;;;;9.90;7.17;;;;;;;13.15;44.71;97039.96;1669113;86;21034;-82
2022/04/13 09:04:16;;;;;;;11.28;8.73;;;;;;;13.23;43.77;97037.80;1669036;86;21075;-82
2022/04/13 09:06:42;;;;;;;10.65;8.43;;;;;;;13.27;43.84;97039.05;1669127;86;21353;-82
2022/04/13 09:09:13;;;;;;;11.88;7.22;;;;;;;13.28;43.99;97040.66;1669020;86;21264;-82
2022/04/13 09:11:39;;;;;;;11.95;8.98;;;;;;;13.33;44.41;97038.30;1668957;85;21315;-82
2022/04/13 09:14:07;;;;;;;13.22;9.45;;;;;;;13.46;44.54;97034.55;1668687;86;21063;-83
2022/04/13 09:16:35;;;;;;;12.30;8.40;;;;;;;13.52;44.28;97040.36;1669133;86;21342;-83
2022/04/13 09:19:05;;;;;;;10.95;7.72;;;;;;;13.61;44.95;97040.55;1669051;86;20991;-83
2022/04/13 09:21:32;;;;;;;10.72;7.30;;;;;;;13.69;44.22;97039.64;1668944;86;21398;-83
2022/04/13 09:23:59;;;;;;;9.43;7.80;;;;;;;13.77;43.96;97037.70;1647742;86;20982;-82
2022/04/13 09:26:25;;;;;;;10.23;8.28;;;;;;;13.80;42.35;97035.20;1669138;86;21039;-82
2022/04/13 09:28:51;;;;;;;10.58;7.78;;;;;;;13.72;42.82;97032.73;1669010;86;21350;-82
2022/04/13 09:31:17;;;;;;;10.85;7.75;;;;;;;13.69;42.49;97031.80;1669048;86;21007;-83
2022/04/13 09:33:43;;;;;;;9.15;7.90;;;;;;;13.73;42.71;97027.82;1668881;86;21334;-82
2022/04/13 09:36:13;;;;;;;10.63;7.50;;;;;;;13.83;43.35;97029.64;1669301;86;21381;-83
2022/04/13 09:38:39;;;;;;;10.30;7.45;;;;;;;13.92;43.50;97022.47;1668997;86;21042;-82
2022/04/13 09:41:10;;;;;;;7.90;6.08;;;;;;;14.06;41.75;97025.52;1669125;86;21445;-82
2022/04/13 09:43:36;;;;;;;9.88;7.83;;;;;;;14.17;41.65;97026.33;1669330;86;21103;-83
2022/04/13 09:46:03;;;;;;;9.43;7.12;;;;;;;14.23;42.29;97027.38;1668862;86;21007;-83
2022/04/13 09:48:34;;;;;;;10.80;8.43;;;;;;;14.17;39.83;97021.10;1668987;86;21058;-83
2022/04/13 09:51:00;;;;;;;11.15;7.70;;;;;;;14.08;41.73;97026.14;1648007;86;21409;-83
2022/04/13 09:53:26;;;;;;;9.28;7.17;;;;;;;14.10;39.62;97021.03;1668899;86;21035;-83
2022/04/13 09:55:54;;;;;;;10.75;7.78;;;;;;;14.14;42.02;97024.07;1658626;86;21059;-82
2022/04/13 09:58:22;;;;;;;9.83;7.47;;;;;;;14.25;42.10;97017.03;1651916;86;21087;-83
2022/04/13 10:00:53;;;;;;;8.70;7.42;;;;;;;14.36;42.08;97025.67;1666845;86;21381;-82
2022/04/13 10:03:22;;;;;;;10.93;7.40;;;;;;;14.45;41.20;97018.52;1637073;87;21141;-82
2022/04/13 10:05:53;;;;;;;9.35;8.03;;;;;;;14.52;42.31;97012.05;1654778;87;21025;-82
2022/04/13 10:08:25;;;;;;;9.30;7.83;;;;;;;14.49;40.12;97015.85;1630496;87;21030;-83
2022/04/13 10:10:59;;;;;;;11.87;7.77;;;;;;;14.37;41.11;97018.64;1655076;87;21073;-82
2022/04/13 10:13:34;;;;;;;8.60;6.25;;;;;;;14.37;41.11;97018.64;1654768;87;21643;-82
2022/04/13 10:16:03;;;;;;;11.53;7.75;;;;;;;14.36;40.44;97016.53;1654409;87;21017;-83
2022/04/13 10:18:32;;;;;;;8.90;6.87;;;;;;;14.44;40.71;97016.09;1653747;87;20974;-82
2022/04/13 10:20:57;;;;;;;10.88;7.17;;;;;;;14.52;40.12;97005.51;1653991;87;21053;-83
2022/04/13 10:23:23;;;;;;;8.40;6.87;;;;;;;14.54;41.50;97004.31;1644751;87;21122;-83
2022/04/13 10:25:48;;;;;;;8.80;7.80;;;;;;;14.62;41.41;97008.57;1654274;87;21386;-82
2022/04/13 10:28:22;;;;;;;10.45;7.55;;;;;;;14.74;40.62;97008.35;1651654;85;21050;-82
2022/04/13 10:30:48;;;;;;;12.23;8.20;;;;;;;14.81;41.38;97003.98;1654082;87;21462;-83
2022/04/13 10:33:14;;;;;;;9.98;7.55;;;;;;;14.79;40.62;97002.03;1650641;87;21042;-83
2022/04/13 10:35:43;;;;;;;7.75;6.60;;;;;;;14.80;41.03;96997.11;1654153;87;21073;-83
2022/04/13 10:38:09;;;;;;;10.00;8.05;;;;;;;14.90;40.96;97002.81;1654141;87;21345;-82
2022/04/13 10:40:39;;;;;;;9.75;7.65;;;;;;;14.90;40.68;97004.12;1653270;85;21085;-82
2022/04/13 10:43:06;;;;;;;9.80;7.22;;;;;;;14.88;41.29;96998.27;1638422;87;21067;-83
2022/04/13 10:45:35;;;;;;;11.05;7.45;;;;;;;14.93;38.89;97008.95;1653551;87;21491;-82
2022/04/13 10:48:10;;;;;;;8.90;7.08;;;;;;;14.88;40.83;97000.89;1639148;87;21337;-83
2022/04/13 10:50:55;;;;;;;13.48;7.72;;;;;;;14.90;39.84;97007.23;1641587;87;21353;-83
2022/04/13 10:53:30;;;;;;;8.78;6.60;;;;;;;14.90;39.83;97003.31;1646253;87;21337;-83
2022/04/13 10:56:05;;;;;;;10.43;6.47;;;;;;;15.00;40.36;96995.42;1636873;87;21018;-83
2022/04/13 10:58:58;;;;;;;8.78;7.87;;;;;;;15.17;39.80;97002.94;1617186;87;28488;-83
2022/04/13 11:01:28;;;;;;;7.72;6.67;;;;;;;15.31;39.74;96998.07;1635263;87;21150;-82
2022/04/13 11:03:53;;;;;;;10.60;7.62;;;;;;;15.42;39.60;97004.03;1637670;85;21041;-83
2022/04/13 11:06:19;;;;;;;9.13;6.97;;;;;;;15.40;38.13;97004.73;1629782;87;21002;-83
2022/04/13 11:08:56;;;;;;;9.80;7.10;;;;;;;15.32;38.23;96998.37;1631908;87;21014;-83
2022/04/13 11:11:23;;;;;;;10.68;7.87;;;;;;;15.31;38.97;97002.80;1640128;86;21062;-83
2022/04/13 11:13:49;;;;;;;11.18;8.23;;;;;;;15.16;37.32;96992.17;1638336;87;22003;-83
2022/04/13 11:16:19;;;;;;;11.35;7.03;;;;;;;15.13;38.15;96992.53;1630513;87;21060;-82
2022/04/13 11:19:13;;;;;;;9.10;6.37;;;;;;;15.15;37.00;96989.25;1627150;87;21005;-83
2022/04/13 11:22:00;;;;;;;9.40;7.85;;;;;;;15.17;38.75;96992.47;1638499;87;21010;-82
2022/04/13 11:24:50;;;;;;;10.13;7.28;;;;;;;15.31;39.09;96987.59;1634527;87;21009;-83
2022/04/13 11:27:16;;;;;;;8.35;7.00;;;;;;;15.44;39.30;96988.92;1630569;86;21057;-83
2022/04/13 11:29:43;;;;;;;9.08;7.80;;;;;;;15.45;36.76;96999.70;1626625;87;21022;-82
2022/04/13 11:32:14;;;;;;;9.13;7.78;;;;;;;15.39;39.95;96997.87;1638152;87;21061;-82
2022/04/13 11:34:58;;;;;;;11.68;8.50;;;;;;;15.39;37.13;96995.26;1645499;87;21064;-82